Port Huron, MI

7:27 AM EST on January 17, 2017 (GMT -0500)
Saint Clair County International | | Change Station
Active Advisory: Special Statement

Elev 650 ft 42.91 °N, 82.53 °W | Updated 11 minutes ago

Overcast
Overcast
34 °F
Feels Like 30 °F
N
5
Wind Variable Wind from ESE

Today
High -- | Low -- °F
--% Chance of Precip.
Yesterday
High -- | Low -- °F
Precip. -- in
Pressure 29.86 in
Visibility 7.0 miles
Clouds Overcast 300 ft
Windchill 30 °F
Dew Point 34 °F
Humidity 100%
Rainfall 0.00 in
Snow Depth Not available.
7:57 AM 5:23 PM
Waning Gibbous, 73% visible
METAR KPHN 171216Z AUTO 11004KT 7SM UP OVC003 01/01 A2986 RMK AO2
Pressure 29.86 in
Visibility 7.0 miles
Clouds Overcast 300 ft
Windchill 30 °F
Dew Point 34 °F
Humidity 100%
Rainfall 0.00 in
Snow Depth Not available.
7:57 AM 5:23 PM
Waning Gibbous, 73% visible
METAR KPHN 171216Z AUTO 11004KT 7SM UP OVC003 01/01 A2986 RMK AO2

Get Your Daily Forecast Email!

Thanks for signing up!

Be on the lookout for a verification email in your inbox.

You'll start receiving the daily forecast at 8 AM.

×

10-Day Weather Forecast

Almanac

Astronomy

Jan. 17, 2017 Rise Set
Actual Time
Civil Twilight
Nautical Twilight
Astronomical Twilight
Moon
Length of Visible Light
Length of Day
Tomorrow will be .
, % of the Moon is Illuminated

Today's Extremes

State Highs State Lows

Community

WunderPhotos

Upload Photos

1,962,540 photos uploaded!

WunderBlog® & News

Nearby

Air Quality

  Air Quality AQ Index Pollutant
Not available.

Snow Depth

Station Depth Elevation

Earthquake Activity

City Distance Mag. Time & Date
Minimum magnitude displayed is 2.5.

Coastal Water Temperatures

Place Temperature

Stations

Nearby Weather Stations

Station Location Temp. Windchill Dew Point Humidity Wind Precip. Elev Updated Type
                   

Watches & Warnings

Special Statement
Issued: 6:11 AM EST Jan. 17, 2017 – National Weather Service

... Travel will be treacherous early this morning...

Although temperatures will slowly warm above freezing early this
morning... it will take several hours to melt the ice off untreated
surfaces. There have been numerous spotter reports early this
morning that untreated roads and sidewalks are extremely icy. The
ice is coated with a layer of water... making it difficult to
determine whether the roads are icy or just wet. Cautious travel
is advised this morning.



611 am EST Tue Jan 17 2017

... Travel will be treacherous early this morning...

Although temperatures will slowly warm above freezing early this
morning... it will take several hours to melt the ice off untreated
surfaces. There have been numerous spotter reports early this
morning that untreated roads and sidewalks are extremely icy. The
ice is coated with a layer of water... making it difficult to
determine whether the roads are icy or just wet. Cautious travel
is advised this morning.